sensor_id;sensor_type;location;lat;lon;timestamp;temperature;humidity
70947;DHT22;58605;48.700;8.760;2023-05-09T00:00:28;15.70;99.90
70947;DHT22;58605;48.700;8.760;2023-05-09T00:02:54;15.60;99.90
70947;DHT22;58605;48.700;8.760;2023-05-09T00:05:21;15.60;99.90
70947;DHT22;58605;48.700;8.760;2023-05-09T00:07:47;15.60;99.90
70947;DHT22;58605;48.700;8.760;2023-05-09T00:10:13;15.40;99.90
70947;DHT22;58605;48.700;8.760;2023-05-09T00:12:41;15.50;99.90
70947;DHT22;58605;48.700;8.760;2023-05-09T00:15:09;15.50;99.90
70947;DHT22;58605;48.700;8.760;2023-05-09T00:17:35;15.60;99.90
70947;DHT22;58605;48.700;8.760;2023-05-09T00:20:04;15.60;99.90
70947;DHT22;58605;48.700;8.760;2023-05-09T00:22:34;15.50;99.90
70947;DHT22;58605;48.700;8.760;2023-05-09T00:25:00;15.50;99.90
70947;DHT22;58605;48.700;8.760;2023-05-09T00:27:26;15.50;99.90
70947;DHT22;58605;48.700;8.760;2023-05-09T00:29:56;15.50;99.90
70947;DHT22;58605;48.700;8.760;2023-05-09T00:32:23;15.60;99.90
70947;DHT22;58605;48.700;8.760;2023-05-09T00:34:52;15.60;99.90
70947;DHT22;58605;48.700;8.760;2023-05-09T00:37:18;15.50;99.90
70947;DHT22;58605;48.700;8.760;2023-05-09T00:39:47;15.40;99.90
70947;DHT22;58605;48.700;8.760;2023-05-09T00:42:13;15.50;99.90
70947;DHT22;58605;48.700;8.760;2023-05-09T00:44:39;15.60;99.90
70947;DHT22;58605;48.700;8.760;2023-05-09T00:47:07;15.70;99.90
70947;DHT22;58605;48.700;8.760;2023-05-09T00:49:33;15.60;99.90
70947;DHT22;58605;48.700;8.760;2023-05-09T00:52:00;15.50;99.90
70947;DHT22;58605;48.700;8.760;2023-05-09T00:54:26;15.50;99.90
70947;DHT22;58605;48.700;8.760;2023-05-09T00:56:53;15.30;99.90
70947;DHT22;58605;48.700;8.760;2023-05-09T00:59:19;15.30;99.90
70947;DHT22;58605;48.700;8.760;2023-05-09T01:01:58;15.20;99.90
70947;DHT22;58605;48.700;8.760;2023-05-09T01:04:26;15.30;99.90
70947;DHT22;58605;48.700;8.760;2023-05-09T01:07:01;15.40;99.90
70947;DHT22;58605;48.700;8.760;2023-05-09T01:09:33;15.40;99.90
70947;DHT22;58605;48.700;8.760;2023-05-09T01:12:09;15.40;99.90
70947;DHT22;58605;48.700;8.760;2023-05-09T01:14:45;15.30;99.90
70947;DHT22;58605;48.700;8.760;2023-05-09T01:17:21;15.40;99.90
70947;DHT22;58605;48.700;8.760;2023-05-09T01:19:59;15.40;99.90
70947;DHT22;58605;48.700;8.760;2023-05-09T01:22:30;15.20;99.90
70947;DHT22;58605;48.700;8.760;2023-05-09T01:25:28;15.10;99.90
70947;DHT22;58605;48.700;8.760;2023-05-09T01:28:07;15.20;99.90
70947;DHT22;58605;48.700;8.760;2023-05-09T01:30:37;15.20;99.90
70947;DHT22;58605;48.700;8.760;2023-05-09T01:33:07;15.00;99.90
70947;DHT22;58605;48.700;8.760;2023-05-09T01:35:36;15.00;99.90
70947;DHT22;58605;48.700;8.760;2023-05-09T01:38:09;15.10;99.90
70947;DHT22;58605;48.700;8.760;2023-05-09T01:40:38;15.00;99.90
70947;DHT22;58605;48.700;8.760;2023-05-09T01:43:07;15.10;99.90
70947;DHT22;58605;48.700;8.760;2023-05-09T01:45:37;15.10;99.90
70947;DHT22;58605;48.700;8.760;2023-05-09T01:48:05;15.10;99.90
70947;DHT22;58605;48.700;8.760;2023-05-09T01:50:33;15.20;99.90
70947;DHT22;58605;48.700;8.760;2023-05-09T01:53:00;15.10;99.90
70947;DHT22;58605;48.700;8.760;2023-05-09T01:55:29;15.00;99.90
70947;DHT22;58605;48.700;8.760;2023-05-09T01:57:57;15.00;99.90
70947;DHT22;58605;48.700;8.760;2023-05-09T02:00:24;15.00;99.90
70947;DHT22;58605;48.700;8.760;2023-05-09T02:02:52;15.10;99.90
70947;DHT22;58605;48.700;8.760;2023-05-09T02:05:20;15.00;99.90
70947;DHT22;58605;48.700;8.760;2023-05-09T02:07:48;14.70;99.90
70947;DHT22;58605;48.700;8.760;2023-05-09T02:10:15;14.50;99.90
70947;DHT22;58605;48.700;8.760;2023-05-09T02:12:41;14.30;99.90
70947;DHT22;58605;48.700;8.760;2023-05-09T02:15:16;14.40;99.90
70947;DHT22;58605;48.700;8.760;2023-05-09T02:17:57;14.50;99.90
70947;DHT22;58605;48.700;8.760;2023-05-09T02:20:23;14.70;99.90
70947;DHT22;58605;48.700;8.760;2023-05-09T02:22:49;14.70;99.90
70947;DHT22;58605;48.700;8.760;2023-05-09T02:25:16;14.70;99.90
70947;DHT22;58605;48.700;8.760;2023-05-09T02:27:45;14.90;99.90
70947;DHT22;58605;48.700;8.760;2023-05-09T02:30:14;15.00;99.90
70947;DHT22;58605;48.700;8.760;2023-05-09T02:32:44;15.00;99.90
70947;DHT22;58605;48.700;8.760;2023-05-09T02:35:13;15.10;99.90
70947;DHT22;58605;48.700;8.760;2023-05-09T02:37:41;15.10;99.90
70947;DHT22;58605;48.700;8.760;2023-05-09T02:40:08;15.20;99.90
70947;DHT22;58605;48.700;8.760;2023-05-09T02:42:35;15.20;99.90
70947;DHT22;58605;48.700;8.760;2023-05-09T02:45:01;15.20;99.90
70947;DHT22;58605;48.700;8.760;2023-05-09T02:47:27;15.20;99.90
70947;DHT22;58605;48.700;8.760;2023-05-09T02:49:56;15.30;99.90
70947;DHT22;58605;48.700;8.760;2023-05-09T02:52:31;15.30;99.90
70947;DHT22;58605;48.700;8.760;2023-05-09T02:54:57;15.40;99.90
70947;DHT22;58605;48.700;8.760;2023-05-09T02:57:23;15.40;99.90
70947;DHT22;58605;48.700;8.760;2023-05-09T02:59:49;15.50;99.90
70947;DHT22;58605;48.700;8.760;2023-05-09T03:02:15;15.60;99.90
70947;DHT22;58605;48.700;8.760;2023-05-09T03:04:42;15.60;99.90
70947;DHT22;58605;48.700;8.760;2023-05-09T03:07:08;15.70;99.90
70947;DHT22;58605;48.700;8.760;2023-05-09T03:09:35;15.70;99.90
70947;DHT22;58605;48.700;8.760;2023-05-09T03:12:01;15.70;99.90
70947;DHT22;58605;48.700;8.760;2023-05-09T03:14:28;15.80;99.90
70947;DHT22;58605;48.700;8.760;2023-05-09T03:16:54;15.80;99.90
70947;DHT22;58605;48.700;8.760;2023-05-09T03:19:20;15.80;99.90
70947;DHT22;58605;48.700;8.760;2023-05-09T03:21:46;15.80;99.90
70947;DHT22;58605;48.700;8.760;2023-05-09T03:24:12;15.80;99.90
70947;DHT22;58605;48.700;8.760;2023-05-09T03:26:40;15.70;99.90
70947;DHT22;58605;48.700;8.760;2023-05-09T03:29:06;15.70;99.90
70947;DHT22;58605;48.700;8.760;2023-05-09T03:31:32;15.80;99.90
70947;DHT22;58605;48.700;8.760;2023-05-09T03:33:58;15.80;99.90
70947;DHT22;58605;48.700;8.760;2023-05-09T03:36:24;15.70;99.90
70947;DHT22;58605;48.700;8.760;2023-05-09T03:38:51;15.70;99.90
70947;DHT22;58605;48.700;8.760;2023-05-09T03:41:17;15.50;99.90
70947;DHT22;58605;48.700;8.760;2023-05-09T03:43:45;15.10;99.90
70947;DHT22;58605;48.700;8.760;2023-05-09T03:46:11;14.70;99.90
70947;DHT22;58605;48.700;8.760;2023-05-09T03:48:37;14.40;99.90
70947;DHT22;58605;48.700;8.760;2023-05-09T03:51:03;14.20;99.90
70947;DHT22;58605;48.700;8.760;2023-05-09T03:53:29;14.20;99.90
70947;DHT22;58605;48.700;8.760;2023-05-09T03:55:55;14.00;99.90
70947;DHT22;58605;48.700;8.760;2023-05-09T03:58:21;13.90;99.90
70947;DHT22;58605;48.700;8.760;2023-05-09T04:00:48;13.90;99.90
70947;DHT22;58605;48.700;8.760;2023-05-09T04:03:14;13.90;99.90
70947;DHT22;58605;48.700;8.760;2023-05-09T04:05:40;14.10;99.90
70947;DHT22;58605;48.700;8.760;2023-05-09T04:08:07;14.20;99.90
70947;DHT22;58605;48.700;8.760;2023-05-09T04:10:33;14.30;99.90
70947;DHT22;58605;48.700;8.760;2023-05-09T04:12:59;14.40;99.90
70947;DHT22;58605;48.700;8.760;2023-05-09T04:15:25;14.40;99.90
70947;DHT22;58605;48.700;8.760;2023-05-09T04:17:53;14.40;99.90
70947;DHT22;58605;48.700;8.760;2023-05-09T04:20:19;14.40;99.90
70947;DHT22;58605;48.700;8.760;2023-05-09T04:22:45;14.50;99.90
70947;DHT22;58605;48.700;8.760;2023-05-09T04:25:11;14.50;99.90
70947;DHT22;58605;48.700;8.760;2023-05-09T04:27:38;14.50;99.90
70947;DHT22;58605;48.700;8.760;2023-05-09T04:30:06;14.40;99.90
70947;DHT22;58605;48.700;8.760;2023-05-09T04:32:32;14.20;99.90
70947;DHT22;58605;48.700;8.760;2023-05-09T04:34:59;14.20;99.90
70947;DHT22;58605;48.700;8.760;2023-05-09T04:37:25;14.20;99.90
70947;DHT22;58605;48.700;8.760;2023-05-09T04:39:52;14.20;99.90
70947;DHT22;58605;48.700;8.760;2023-05-09T04:42:18;14.20;99.90
70947;DHT22;58605;48.700;8.760;2023-05-09T04:44:43;14.00;99.90
70947;DHT22;58605;48.700;8.760;2023-05-09T04:47:09;14.00;99.90
70947;DHT22;58605;48.700;8.760;2023-05-09T04:49:36;14.10;99.90
70947;DHT22;58605;48.700;8.760;2023-05-09T04:52:03;14.30;99.90
70947;DHT22;58605;48.700;8.760;2023-05-09T04:54:30;14.30;99.90
70947;DHT22;58605;48.700;8.760;2023-05-09T04:56:56;14.10;99.90
70947;DHT22;58605;48.700;8.760;2023-05-09T04:59:22;14.00;99.90
70947;DHT22;58605;48.700;8.760;2023-05-09T05:01:48;14.00;99.90
70947;DHT22;58605;48.700;8.760;2023-05-09T05:04:14;14.10;99.90
70947;DHT22;58605;48.700;8.760;2023-05-09T05:06:40;14.20;99.90
70947;DHT22;58605;48.700;8.760;2023-05-09T05:09:07;14.30;99.90
70947;DHT22;58605;48.700;8.760;2023-05-09T05:11:34;14.30;99.90
70947;DHT22;58605;48.700;8.760;2023-05-09T05:14:00;14.40;99.90
70947;DHT22;58605;48.700;8.760;2023-05-09T05:16:26;14.50;99.90
70947;DHT22;58605;48.700;8.760;2023-05-09T05:18:52;14.40;99.90
70947;DHT22;58605;48.700;8.760;2023-05-09T05:21:18;14.40;99.90
70947;DHT22;58605;48.700;8.760;2023-05-09T05:23:44;14.40;99.90
70947;DHT22;58605;48.700;8.760;2023-05-09T05:26:12;14.30;99.90
70947;DHT22;58605;48.700;8.760;2023-05-09T05:28:38;14.30;99.90
70947;DHT22;58605;48.700;8.760;2023-05-09T05:31:04;14.30;99.90
70947;DHT22;58605;48.700;8.760;2023-05-09T05:33:30;14.40;99.90
70947;DHT22;58605;48.700;8.760;2023-05-09T05:35:56;14.40;99.90
70947;DHT22;58605;48.700;8.760;2023-05-09T05:38:22;14.40;99.90
70947;DHT22;58605;48.700;8.760;2023-05-09T05:40:48;14.40;99.90
70947;DHT22;58605;48.700;8.760;2023-05-09T05:43:15;14.40;99.90
70947;DHT22;58605;48.700;8.760;2023-05-09T05:45:41;14.40;99.90
70947;DHT22;58605;48.700;8.760;2023-05-09T05:48:07;14.50;99.90
70947;DHT22;58605;48.700;8.760;2023-05-09T05:50:33;14.50;99.90
70947;DHT22;58605;48.700;8.760;2023-05-09T05:53:01;14.50;99.90
70947;DHT22;58605;48.700;8.760;2023-05-09T05:55:27;14.60;99.90
70947;DHT22;58605;48.700;8.760;2023-05-09T05:57:53;14.60;99.90
70947;DHT22;58605;48.700;8.760;2023-05-09T06:00:21;14.60;99.90
70947;DHT22;58605;48.700;8.760;2023-05-09T06:02:47;14.60;99.90
70947;DHT22;58605;48.700;8.760;2023-05-09T06:05:13;14.60;99.90
70947;DHT22;58605;48.700;8.760;2023-05-09T06:07:39;14.60;99.90
70947;DHT22;58605;48.700;8.760;2023-05-09T06:10:07;14.60;99.90
70947;DHT22;58605;48.700;8.760;2023-05-09T06:12:33;14.70;99.90
70947;DHT22;58605;48.700;8.760;2023-05-09T06:14:59;14.80;99.90
70947;DHT22;58605;48.700;8.760;2023-05-09T06:17:27;14.90;99.90
70947;DHT22;58605;48.700;8.760;2023-05-09T06:19:53;15.00;99.90
70947;DHT22;58605;48.700;8.760;2023-05-09T06:22:19;15.00;99.90
70947;DHT22;58605;48.700;8.760;2023-05-09T06:24:45;15.10;99.90
70947;DHT22;58605;48.700;8.760;2023-05-09T06:27:11;15.20;99.90
70947;DHT22;58605;48.700;8.760;2023-05-09T06:29:37;15.20;99.90
70947;DHT22;58605;48.700;8.760;2023-05-09T06:32:03;15.20;99.90
70947;DHT22;58605;48.700;8.760;2023-05-09T06:34:31;15.40;99.90
70947;DHT22;58605;48.700;8.760;2023-05-09T06:36:57;15.40;99.90
70947;DHT22;58605;48.700;8.760;2023-05-09T06:39:23;15.50;99.90
70947;DHT22;58605;48.700;8.760;2023-05-09T06:41:49;15.50;99.90
70947;DHT22;58605;48.700;8.760;2023-05-09T06:44:15;15.50;99.90
70947;DHT22;58605;48.700;8.760;2023-05-09T06:46:41;15.60;99.90
70947;DHT22;58605;48.700;8.760;2023-05-09T06:49:07;15.50;99.90
70947;DHT22;58605;48.700;8.760;2023-05-09T06:51:34;15.50;99.90
70947;DHT22;58605;48.700;8.760;2023-05-09T06:54:01;15.30;99.90
70947;DHT22;58605;48.700;8.760;2023-05-09T06:56:27;15.20;99.90
70947;DHT22;58605;48.700;8.760;2023-05-09T06:58:53;15.10;99.90
70947;DHT22;58605;48.700;8.760;2023-05-09T07:01:20;15.20;99.90
70947;DHT22;58605;48.700;8.760;2023-05-09T07:03:46;15.40;99.90
70947;DHT22;58605;48.700;8.760;2023-05-09T07:06:12;15.70;99.90
70947;DHT22;58605;48.700;8.760;2023-05-09T07:08:40;15.80;99.90
70947;DHT22;58605;48.700;8.760;2023-05-09T07:11:06;16.00;99.90
70947;DHT22;58605;48.700;8.760;2023-05-09T07:13:32;16.10;99.90
70947;DHT22;58605;48.700;8.760;2023-05-09T07:15:58;16.10;99.90
70947;DHT22;58605;48.700;8.760;2023-05-09T07:18:24;16.20;99.90
70947;DHT22;58605;48.700;8.760;2023-05-09T07:20:50;16.30;99.90
70947;DHT22;58605;48.700;8.760;2023-05-09T07:23:16;16.40;99.90
70947;DHT22;58605;48.700;8.760;2023-05-09T07:25:43;16.30;99.90
70947;DHT22;58605;48.700;8.760;2023-05-09T07:28:10;16.40;99.90
70947;DHT22;58605;48.700;8.760;2023-05-09T07:30:37;16.20;99.90
70947;DHT22;58605;48.700;8.760;2023-05-09T07:33:03;16.00;99.90
70947;DHT22;58605;48.700;8.760;2023-05-09T07:35:29;15.90;99.90
70947;DHT22;58605;48.700;8.760;2023-05-09T07:37:55;15.90;99.90
70947;DHT22;58605;48.700;8.760;2023-05-09T07:40:22;15.90;99.90
70947;DHT22;58605;48.700;8.760;2023-05-09T07:42:49;15.80;99.90
70947;DHT22;58605;48.700;8.760;2023-05-09T07:45:16;15.80;99.90
70947;DHT22;58605;48.700;8.760;2023-05-09T07:47:42;16.00;99.90
70947;DHT22;58605;48.700;8.760;2023-05-09T07:50:08;16.10;99.90
70947;DHT22;58605;48.700;8.760;2023-05-09T07:52:34;16.20;99.90
70947;DHT22;58605;48.700;8.760;2023-05-09T07:55:00;16.30;99.90
70947;DHT22;58605;48.700;8.760;2023-05-09T07:57:32;16.30;99.90
70947;DHT22;58605;48.700;8.760;2023-05-09T08:00:00;16.30;99.90
70947;DHT22;58605;48.700;8.760;2023-05-09T08:02:26;16.40;99.90
70947;DHT22;58605;48.700;8.760;2023-05-09T08:04:52;16.40;99.90
70947;DHT22;58605;48.700;8.760;2023-05-09T08:07:18;16.40;99.90
70947;DHT22;58605;48.700;8.760;2023-05-09T08:09:44;16.60;99.90
70947;DHT22;58605;48.700;8.760;2023-05-09T08:12:10;16.80;99.90
70947;DHT22;58605;48.700;8.760;2023-05-09T08:14:36;16.80;99.90
70947;DHT22;58605;48.700;8.760;2023-05-09T08:17:03;16.90;99.90
70947;DHT22;58605;48.700;8.760;2023-05-09T08:19:29;17.00;99.90
70947;DHT22;58605;48.700;8.760;2023-05-09T08:21:55;17.00;99.90
70947;DHT22;58605;48.700;8.760;2023-05-09T08:24:21;16.90;99.90
70947;DHT22;58605;48.700;8.760;2023-05-09T08:26:47;16.80;99.90
70947;DHT22;58605;48.700;8.760;2023-05-09T08:29:19;16.60;99.90
70947;DHT22;58605;48.700;8.760;2023-05-09T08:31:45;16.40;99.90
70947;DHT22;58605;48.700;8.760;2023-05-09T08:34:13;16.30;99.90
70947;DHT22;58605;48.700;8.760;2023-05-09T08:36:39;16.10;99.90
70947;DHT22;58605;48.700;8.760;2023-05-09T08:39:05;16.00;99.90
70947;DHT22;58605;48.700;8.760;2023-05-09T08:41:32;16.00;99.90
70947;DHT22;58605;48.700;8.760;2023-05-09T08:44:00;16.00;99.90
70947;DHT22;58605;48.700;8.760;2023-05-09T08:46:31;16.00;99.90
70947;DHT22;58605;48.700;8.760;2023-05-09T08:48:59;16.00;99.90
70947;DHT22;58605;48.700;8.760;2023-05-09T08:51:28;16.00;99.90
70947;DHT22;58605;48.700;8.760;2023-05-09T08:53:56;16.30;99.90
70947;DHT22;58605;48.700;8.760;2023-05-09T08:56:23;16.50;99.90
70947;DHT22;58605;48.700;8.760;2023-05-09T08:58:51;16.40;99.90
70947;DHT22;58605;48.700;8.760;2023-05-09T09:01:18;16.30;99.90
70947;DHT22;58605;48.700;8.760;2023-05-09T09:03:45;16.20;99.90
70947;DHT22;58605;48.700;8.760;2023-05-09T09:06:14;16.20;99.90
70947;DHT22;58605;48.700;8.760;2023-05-09T09:08:43;16.10;99.90
70947;DHT22;58605;48.700;8.760;2023-05-09T09:11:12;16.10;99.90
70947;DHT22;58605;48.700;8.760;2023-05-09T09:13:40;16.10;99.90
70947;DHT22;58605;48.700;8.760;2023-05-09T09:16:11;16.20;99.90
70947;DHT22;58605;48.700;8.760;2023-05-09T09:18:38;16.10;99.90
70947;DHT22;58605;48.700;8.760;2023-05-09T09:21:06;16.00;99.90
70947;DHT22;58605;48.700;8.760;2023-05-09T09:23:37;15.80;99.90
70947;DHT22;58605;48.700;8.760;2023-05-09T09:26:05;15.80;99.90
70947;DHT22;58605;48.700;8.760;2023-05-09T09:28:31;15.80;99.90
70947;DHT22;58605;48.700;8.760;2023-05-09T09:30:57;15.70;99.90
70947;DHT22;58605;48.700;8.760;2023-05-09T09:33:24;15.70;99.90
70947;DHT22;58605;48.700;8.760;2023-05-09T09:35:51;15.50;99.90
70947;DHT22;58605;48.700;8.760;2023-05-09T09:38:18;15.40;99.90
70947;DHT22;58605;48.700;8.760;2023-05-09T09:40:48;15.30;99.90
70947;DHT22;58605;48.700;8.760;2023-05-09T09:43:19;15.20;99.90
70947;DHT22;58605;48.700;8.760;2023-05-09T09:45:48;15.30;99.90
70947;DHT22;58605;48.700;8.760;2023-05-09T09:48:15;15.40;99.90
70947;DHT22;58605;48.700;8.760;2023-05-09T09:50:41;15.50;99.90
70947;DHT22;58605;48.700;8.760;2023-05-09T09:53:07;15.40;99.90
70947;DHT22;58605;48.700;8.760;2023-05-09T09:55:34;15.40;99.90
70947;DHT22;58605;48.700;8.760;2023-05-09T09:58:00;15.50;99.90
70947;DHT22;58605;48.700;8.760;2023-05-09T10:00:27;15.50;99.90
70947;DHT22;58605;48.700;8.760;2023-05-09T10:02:56;15.70;99.90
70947;DHT22;58605;48.700;8.760;2023-05-09T10:05:23;15.80;99.90
70947;DHT22;58605;48.700;8.760;2023-05-09T10:07:53;15.70;99.90
70947;DHT22;58605;48.700;8.760;2023-05-09T10:10:19;15.70;99.90
70947;DHT22;58605;48.700;8.760;2023-05-09T10:12:45;15.80;99.90
70947;DHT22;58605;48.700;8.760;2023-05-09T10:15:15;15.90;99.90
70947;DHT22;58605;48.700;8.760;2023-05-09T10:17:42;16.00;99.90
70947;DHT22;58605;48.700;8.760;2023-05-09T10:20:09;16.00;99.90
70947;DHT22;58605;48.700;8.760;2023-05-09T10:22:38;16.00;99.90
70947;DHT22;58605;48.700;8.760;2023-05-09T10:25:09;16.00;99.90
70947;DHT22;58605;48.700;8.760;2023-05-09T10:27:40;15.90;99.90
70947;DHT22;58605;48.700;8.760;2023-05-09T10:30:13;16.20;99.90
70947;DHT22;58605;48.700;8.760;2023-05-09T10:32:48;16.30;99.90
70947;DHT22;58605;48.700;8.760;2023-05-09T10:35:18;16.30;99.90
70947;DHT22;58605;48.700;8.760;2023-05-09T10:37:44;16.30;99.90
70947;DHT22;58605;48.700;8.760;2023-05-09T10:40:11;16.40;99.90
70947;DHT22;58605;48.700;8.760;2023-05-09T10:42:41;16.30;99.90
70947;DHT22;58605;48.700;8.760;2023-05-09T10:45:09;16.20;99.90
70947;DHT22;58605;48.700;8.760;2023-05-09T10:47:36;16.10;99.90
70947;DHT22;58605;48.700;8.760;2023-05-09T10:50:04;16.10;99.90
70947;DHT22;58605;48.700;8.760;2023-05-09T10:52:31;16.10;99.90
70947;DHT22;58605;48.700;8.760;2023-05-09T10:54:58;16.30;99.90
70947;DHT22;58605;48.700;8.760;2023-05-09T10:57:29;16.40;99.90
70947;DHT22;58605;48.700;8.760;2023-05-09T10:59:56;16.40;99.90
70947;DHT22;58605;48.700;8.760;2023-05-09T11:02:22;16.40;99.90
70947;DHT22;58605;48.700;8.760;2023-05-09T11:05:13;16.50;99.90
70947;DHT22;58605;48.700;8.760;2023-05-09T11:07:41;16.50;99.90
70947;DHT22;58605;48.700;8.760;2023-05-09T11:10:09;16.40;99.90
70947;DHT22;58605;48.700;8.760;2023-05-09T11:12:52;16.40;99.90
70947;DHT22;58605;48.700;8.760;2023-05-09T11:15:18;16.30;99.90
70947;DHT22;58605;48.700;8.760;2023-05-09T11:17:45;16.30;99.90
70947;DHT22;58605;48.700;8.760;2023-05-09T11:20:16;16.30;99.90
70947;DHT22;58605;48.700;8.760;2023-05-09T11:22:43;16.20;99.90
70947;DHT22;58605;48.700;8.760;2023-05-09T11:25:12;16.20;99.90
70947;DHT22;58605;48.700;8.760;2023-05-09T11:27:40;16.10;99.90
70947;DHT22;58605;48.700;8.760;2023-05-09T11:30:09;16.10;99.90
70947;DHT22;58605;48.700;8.760;2023-05-09T11:32:41;16.30;99.90
70947;DHT22;58605;48.700;8.760;2023-05-09T11:35:09;16.40;99.90
70947;DHT22;58605;48.700;8.760;2023-05-09T11:37:47;16.40;99.90
70947;DHT22;58605;48.700;8.760;2023-05-09T11:40:14;16.40;99.90
70947;DHT22;58605;48.700;8.760;2023-05-09T11:42:43;16.40;99.90
70947;DHT22;58605;48.700;8.760;2023-05-09T11:45:10;16.40;99.90
70947;DHT22;58605;48.700;8.760;2023-05-09T11:47:37;16.40;99.90
70947;DHT22;58605;48.700;8.760;2023-05-09T11:50:05;16.40;99.90
70947;DHT22;58605;48.700;8.760;2023-05-09T11:52:32;16.30;99.90
70947;DHT22;58605;48.700;8.760;2023-05-09T11:55:00;16.40;99.90
70947;DHT22;58605;48.700;8.760;2023-05-09T11:57:27;16.40;99.90
70947;DHT22;58605;48.700;8.760;2023-05-09T11:59:53;16.40;99.90
70947;DHT22;58605;48.700;8.760;2023-05-09T12:02:20;16.30;99.90
70947;DHT22;58605;48.700;8.760;2023-05-09T12:04:47;16.30;99.90
70947;DHT22;58605;48.700;8.760;2023-05-09T12:07:13;16.30;99.90
70947;DHT22;58605;48.700;8.760;2023-05-09T12:09:41;16.20;99.90
70947;DHT22;58605;48.700;8.760;2023-05-09T12:12:10;16.40;99.90
70947;DHT22;58605;48.700;8.760;2023-05-09T12:14:37;16.50;99.90
70947;DHT22;58605;48.700;8.760;2023-05-09T12:17:04;16.50;99.90
70947;DHT22;58605;48.700;8.760;2023-05-09T12:19:30;16.50;99.90
70947;DHT22;58605;48.700;8.760;2023-05-09T12:21:57;16.50;99.90
70947;DHT22;58605;48.700;8.760;2023-05-09T12:24:24;16.50;99.90
70947;DHT22;58605;48.700;8.760;2023-05-09T12:26:52;16.50;99.90
70947;DHT22;58605;48.700;8.760;2023-05-09T12:29:20;16.40;99.90
70947;DHT22;58605;48.700;8.760;2023-05-09T12:31:47;16.50;99.90
70947;DHT22;58605;48.700;8.760;2023-05-09T12:34:14;16.30;99.90
70947;DHT22;58605;48.700;8.760;2023-05-09T12:36:42;16.40;99.90
70947;DHT22;58605;48.700;8.760;2023-05-09T12:39:15;16.40;99.90
70947;DHT22;58605;48.700;8.760;2023-05-09T12:41:44;16.40;99.90
70947;DHT22;58605;48.700;8.760;2023-05-09T12:44:19;16.50;99.90
70947;DHT22;58605;48.700;8.760;2023-05-09T12:46:54;16.50;99.90
70947;DHT22;58605;48.700;8.760;2023-05-09T12:49:20;16.60;99.90
70947;DHT22;58605;48.700;8.760;2023-05-09T12:51:47;16.40;99.90
70947;DHT22;58605;48.700;8.760;2023-05-09T12:54:19;16.50;99.90
70947;DHT22;58605;48.700;8.760;2023-05-09T12:56:46;16.50;99.90
70947;DHT22;58605;48.700;8.760;2023-05-09T12:59:12;16.50;99.90
70947;DHT22;58605;48.700;8.760;2023-05-09T13:01:41;16.40;99.90
70947;DHT22;58605;48.700;8.760;2023-05-09T13:04:07;16.40;99.90
70947;DHT22;58605;48.700;8.760;2023-05-09T13:06:34;16.50;99.90
70947;DHT22;58605;48.700;8.760;2023-05-09T13:09:02;16.40;99.90
70947;DHT22;58605;48.700;8.760;2023-05-09T13:11:30;16.40;99.90
70947;DHT22;58605;48.700;8.760;2023-05-09T13:13:56;16.40;99.90
70947;DHT22;58605;48.700;8.760;2023-05-09T13:16:23;16.40;99.90
70947;DHT22;58605;48.700;8.760;2023-05-09T13:18:50;16.50;99.90
70947;DHT22;58605;48.700;8.760;2023-05-09T13:21:16;16.50;99.90
70947;DHT22;58605;48.700;8.760;2023-05-09T13:23:42;16.50;99.90
70947;DHT22;58605;48.700;8.760;2023-05-09T13:26:11;16.60;99.90
70947;DHT22;58605;48.700;8.760;2023-05-09T13:28:38;16.60;99.90
70947;DHT22;58605;48.700;8.760;2023-05-09T13:31:04;16.60;99.90
70947;DHT22;58605;48.700;8.760;2023-05-09T13:33:30;16.50;99.90
70947;DHT22;58605;48.700;8.760;2023-05-09T13:35:57;16.50;99.90
70947;DHT22;58605;48.700;8.760;2023-05-09T13:38:23;16.50;99.90
70947;DHT22;58605;48.700;8.760;2023-05-09T13:40:50;16.40;99.90
70947;DHT22;58605;48.700;8.760;2023-05-09T13:43:16;16.50;99.90
70947;DHT22;58605;48.700;8.760;2023-05-09T13:45:42;16.40;99.90
70947;DHT22;58605;48.700;8.760;2023-05-09T13:48:08;16.40;99.90
70947;DHT22;58605;48.700;8.760;2023-05-09T13:50:34;16.30;99.90
70947;DHT22;58605;48.700;8.760;2023-05-09T13:53:02;16.40;99.90
70947;DHT22;58605;48.700;8.760;2023-05-09T13:55:28;16.60;99.90
70947;DHT22;58605;48.700;8.760;2023-05-09T13:57:55;16.60;99.90
70947;DHT22;58605;48.700;8.760;2023-05-09T14:00:21;16.70;99.90
70947;DHT22;58605;48.700;8.760;2023-05-09T14:02:50;16.80;99.90
70947;DHT22;58605;48.700;8.760;2023-05-09T14:05:17;16.90;99.90
70947;DHT22;58605;48.700;8.760;2023-05-09T14:07:43;16.80;99.90
70947;DHT22;58605;48.700;8.760;2023-05-09T14:10:11;16.90;99.90
70947;DHT22;58605;48.700;8.760;2023-05-09T14:12:38;16.90;99.90
70947;DHT22;58605;48.700;8.760;2023-05-09T14:15:05;17.00;99.90
70947;DHT22;58605;48.700;8.760;2023-05-09T14:17:32;17.00;99.90
70947;DHT22;58605;48.700;8.760;2023-05-09T14:19:58;17.00;99.90
70947;DHT22;58605;48.700;8.760;2023-05-09T14:22:24;17.10;99.90
70947;DHT22;58605;48.700;8.760;2023-05-09T14:24:57;17.10;99.90
70947;DHT22;58605;48.700;8.760;2023-05-09T14:27:25;17.10;99.90
70947;DHT22;58605;48.700;8.760;2023-05-09T14:29:51;17.10;99.90
70947;DHT22;58605;48.700;8.760;2023-05-09T14:32:17;17.10;99.90
70947;DHT22;58605;48.700;8.760;2023-05-09T14:34:43;17.10;99.90
70947;DHT22;58605;48.700;8.760;2023-05-09T14:37:10;17.10;99.90
70947;DHT22;58605;48.700;8.760;2023-05-09T14:39:39;17.00;99.90
70947;DHT22;58605;48.700;8.760;2023-05-09T14:42:06;16.90;99.90
70947;DHT22;58605;48.700;8.760;2023-05-09T14:44:36;16.80;99.90
70947;DHT22;58605;48.700;8.760;2023-05-09T14:47:03;16.70;99.90
70947;DHT22;58605;48.700;8.760;2023-05-09T14:49:29;16.80;99.90
70947;DHT22;58605;48.700;8.760;2023-05-09T14:51:55;16.90;99.90
70947;DHT22;58605;48.700;8.760;2023-05-09T14:54:27;16.90;99.90
70947;DHT22;58605;48.700;8.760;2023-05-09T14:56:53;17.00;99.90
70947;DHT22;58605;48.700;8.760;2023-05-09T14:59:19;17.00;99.90
70947;DHT22;58605;48.700;8.760;2023-05-09T15:01:46;17.00;99.90
70947;DHT22;58605;48.700;8.760;2023-05-09T15:04:12;17.00;99.90
70947;DHT22;58605;48.700;8.760;2023-05-09T15:06:38;17.00;99.90
70947;DHT22;58605;48.700;8.760;2023-05-09T15:09:05;17.10;99.90
70947;DHT22;58605;48.700;8.760;2023-05-09T15:11:31;17.10;99.90
70947;DHT22;58605;48.700;8.760;2023-05-09T15:13:57;17.10;99.90
70947;DHT22;58605;48.700;8.760;2023-05-09T15:16:23;17.10;99.90
70947;DHT22;58605;48.700;8.760;2023-05-09T15:18:50;17.20;99.90
70947;DHT22;58605;48.700;8.760;2023-05-09T15:21:16;17.20;99.90
70947;DHT22;58605;48.700;8.760;2023-05-09T15:23:42;17.20;99.90
70947;DHT22;58605;48.700;8.760;2023-05-09T15:26:08;17.30;99.90
70947;DHT22;58605;48.700;8.760;2023-05-09T15:28:37;17.30;99.90
70947;DHT22;58605;48.700;8.760;2023-05-09T15:31:03;17.20;99.90